CL23 weather

Jones/Ag-Viation Airport
Biggs, California, United States

Public forecast

Using degrees Fahrenheit for public forecast. Weather courtesy of forecast.io.

Closest aviation weather report (METAR) to Jones/Ag-Viation Airport

Closest report is Oroville Municipal Airport, 3.8 nm (7.1 km) ENE. Retrieved 2019/10/14 22:53 UTC (1 hour ago):

KOVE 142253Z AUTO 00000KT 10SM CLR 26/M02 A2992 RMK AO2 SLP134 T02611017

Closest aviation forecast (TAF) to Jones/Ag-Viation Airport

Forecast is more than 12 hours old.

Closest forecast is Beale Air Force Base, 22.8 nm (42.3 km) SSE. Retrieved 2019/10/14 11:03 UTC (13 hours ago):

TAF TAF KBAB 141100Z 1411/1517 VRB06KT 9999 SKC QNH2986INS TX26/1423Z TN07/1413Z